sensor_id;sensor_type;location;lat;lon;timestamp;P1;durP1;ratioP1;P2;durP2;ratioP2
16407;SDS011;8313;49.894;8.084;2022-11-15T00:02:09;11.70;;;9.50;;
16407;SDS011;8313;49.894;8.084;2022-11-15T00:04:54;14.43;;;9.43;;
16407;SDS011;8313;49.894;8.084;2022-11-15T00:07:38;12.97;;;10.03;;
16407;SDS011;8313;49.894;8.084;2022-11-15T00:10:22;12.10;;;9.17;;
16407;SDS011;8313;49.894;8.084;2022-11-15T00:13:07;12.47;;;9.03;;
16407;SDS011;8313;49.894;8.084;2022-11-15T00:15:52;13.30;;;9.23;;
16407;SDS011;8313;49.894;8.084;2022-11-15T00:18:40;13.97;;;8.30;;
16407;SDS011;8313;49.894;8.084;2022-11-15T00:21:24;14.43;;;9.53;;
16407;SDS011;8313;49.894;8.084;2022-11-15T00:24:08;14.30;;;8.60;;
16407;SDS011;8313;49.894;8.084;2022-11-15T00:26:52;12.23;;;8.53;;
16407;SDS011;8313;49.894;8.084;2022-11-15T00:29:36;11.10;;;8.33;;
16407;SDS011;8313;49.894;8.084;2022-11-15T00:32:22;12.37;;;8.53;;
16407;SDS011;8313;49.894;8.084;2022-11-15T00:35:06;11.80;;;8.20;;
16407;SDS011;8313;49.894;8.084;2022-11-15T00:37:50;9.63;;;7.43;;
16407;SDS011;8313;49.894;8.084;2022-11-15T00:40:36;14.00;;;7.27;;
16407;SDS011;8313;49.894;8.084;2022-11-15T00:43:21;11.30;;;9.10;;
16407;SDS011;8313;49.894;8.084;2022-11-15T00:46:05;14.27;;;8.43;;
16407;SDS011;8313;49.894;8.084;2022-11-15T00:48:49;11.90;;;8.20;;
16407;SDS011;8313;49.894;8.084;2022-11-15T00:51:33;11.80;;;8.40;;
16407;SDS011;8313;49.894;8.084;2022-11-15T00:54:18;13.97;;;8.73;;
16407;SDS011;8313;49.894;8.084;2022-11-15T00:57:02;12.83;;;8.13;;
16407;SDS011;8313;49.894;8.084;2022-11-15T00:59:46;10.47;;;7.87;;
16407;SDS011;8313;49.894;8.084;2022-11-15T01:02:30;12.10;;;8.20;;
16407;SDS011;8313;49.894;8.084;2022-11-15T01:05:15;12.00;;;7.47;;
16407;SDS011;8313;49.894;8.084;2022-11-15T01:07:59;12.07;;;8.23;;
16407;SDS011;8313;49.894;8.084;2022-11-15T01:10:43;13.93;;;7.80;;
16407;SDS011;8313;49.894;8.084;2022-11-15T01:13:29;11.47;;;7.67;;
16407;SDS011;8313;49.894;8.084;2022-11-15T01:16:16;9.60;;;7.97;;
16407;SDS011;8313;49.894;8.084;2022-11-15T01:19:01;7.77;;;6.60;;
16407;SDS011;8313;49.894;8.084;2022-11-15T01:21:48;8.93;;;7.17;;
16407;SDS011;8313;49.894;8.084;2022-11-15T01:24:33;9.87;;;6.67;;
16407;SDS011;8313;49.894;8.084;2022-11-15T01:27:17;10.90;;;7.27;;
16407;SDS011;8313;49.894;8.084;2022-11-15T01:30:02;12.43;;;7.80;;
16407;SDS011;8313;49.894;8.084;2022-11-15T01:32:47;10.60;;;6.93;;
16407;SDS011;8313;49.894;8.084;2022-11-15T01:35:31;9.50;;;6.97;;
16407;SDS011;8313;49.894;8.084;2022-11-15T01:38:15;10.73;;;8.23;;
16407;SDS011;8313;49.894;8.084;2022-11-15T01:40:59;12.20;;;8.20;;
16407;SDS011;8313;49.894;8.084;2022-11-15T01:43:44;12.40;;;8.17;;
16407;SDS011;8313;49.894;8.084;2022-11-15T01:46:35;10.90;;;7.50;;
16407;SDS011;8313;49.894;8.084;2022-11-15T01:49:22;9.33;;;7.10;;
16407;SDS011;8313;49.894;8.084;2022-11-15T01:52:09;8.43;;;7.53;;
16407;SDS011;8313;49.894;8.084;2022-11-15T01:58:04;10.67;;;7.80;;
16407;SDS011;8313;49.894;8.084;2022-11-15T02:00:50;10.90;;;7.13;;
16407;SDS011;8313;49.894;8.084;2022-11-15T02:04:11;8.43;;;6.90;;
16407;SDS011;8313;49.894;8.084;2022-11-15T02:06:54;9.67;;;7.37;;
16407;SDS011;8313;49.894;8.084;2022-11-15T02:09:39;13.50;;;6.70;;
16407;SDS011;8313;49.894;8.084;2022-11-15T02:12:24;11.40;;;7.70;;
16407;SDS011;8313;49.894;8.084;2022-11-15T02:15:09;8.13;;;6.77;;
16407;SDS011;8313;49.894;8.084;2022-11-15T02:18:11;11.43;;;6.30;;
16407;SDS011;8313;49.894;8.084;2022-11-15T02:21:06;9.90;;;7.00;;
16407;SDS011;8313;49.894;8.084;2022-11-15T02:24:06;9.37;;;6.37;;
16407;SDS011;8313;49.894;8.084;2022-11-15T02:27:27;7.00;;;5.30;;
16407;SDS011;8313;49.894;8.084;2022-11-15T02:33:28;7.53;;;5.60;;
16407;SDS011;8313;49.894;8.084;2022-11-15T02:36:16;15.20;;;6.13;;
16407;SDS011;8313;49.894;8.084;2022-11-15T02:39:29;11.83;;;7.43;;
16407;SDS011;8313;49.894;8.084;2022-11-15T02:42:21;10.80;;;6.90;;
16407;SDS011;8313;49.894;8.084;2022-11-15T02:45:30;9.50;;;7.53;;
16407;SDS011;8313;49.894;8.084;2022-11-15T02:48:20;11.70;;;8.10;;
16407;SDS011;8313;49.894;8.084;2022-11-15T02:51:07;11.90;;;8.13;;
16407;SDS011;8313;49.894;8.084;2022-11-15T02:53:51;11.67;;;7.90;;
16407;SDS011;8313;49.894;8.084;2022-11-15T02:56:36;10.23;;;7.37;;
16407;SDS011;8313;49.894;8.084;2022-11-15T03:08:08;11.07;;;8.37;;
16407;SDS011;8313;49.894;8.084;2022-11-15T03:11:20;10.87;;;7.50;;
16407;SDS011;8313;49.894;8.084;2022-11-15T03:14:11;10.73;;;7.30;;
16407;SDS011;8313;49.894;8.084;2022-11-15T03:20:07;11.67;;;7.37;;
16407;SDS011;8313;49.894;8.084;2022-11-15T03:22:54;11.20;;;7.67;;
16407;SDS011;8313;49.894;8.084;2022-11-15T03:25:45;8.90;;;7.20;;
16407;SDS011;8313;49.894;8.084;2022-11-15T03:28:36;10.33;;;7.40;;
16407;SDS011;8313;49.894;8.084;2022-11-15T03:31:27;12.40;;;7.30;;
16407;SDS011;8313;49.894;8.084;2022-11-15T03:34:40;10.50;;;7.43;;
16407;SDS011;8313;49.894;8.084;2022-11-15T03:37:39;8.77;;;7.10;;
16407;SDS011;8313;49.894;8.084;2022-11-15T03:40:30;8.80;;;6.43;;
16407;SDS011;8313;49.894;8.084;2022-11-15T03:46:39;8.83;;;6.80;;
16407;SDS011;8313;49.894;8.084;2022-11-15T03:49:35;9.10;;;6.93;;
16407;SDS011;8313;49.894;8.084;2022-11-15T03:52:22;11.83;;;7.40;;
16407;SDS011;8313;49.894;8.084;2022-11-15T03:55:08;12.10;;;7.10;;
16407;SDS011;8313;49.894;8.084;2022-11-15T03:57:56;8.97;;;6.13;;
16407;SDS011;8313;49.894;8.084;2022-11-15T04:00:43;7.33;;;5.37;;
16407;SDS011;8313;49.894;8.084;2022-11-15T04:03:27;7.80;;;6.30;;
16407;SDS011;8313;49.894;8.084;2022-11-15T04:06:12;8.90;;;5.97;;
16407;SDS011;8313;49.894;8.084;2022-11-15T04:08:56;8.27;;;5.70;;
16407;SDS011;8313;49.894;8.084;2022-11-15T04:11:40;10.70;;;6.20;;
16407;SDS011;8313;49.894;8.084;2022-11-15T04:14:25;9.77;;;5.70;;
16407;SDS011;8313;49.894;8.084;2022-11-15T04:17:09;8.57;;;6.00;;
16407;SDS011;8313;49.894;8.084;2022-11-15T04:19:53;8.90;;;5.67;;
16407;SDS011;8313;49.894;8.084;2022-11-15T04:22:57;8.53;;;5.90;;
16407;SDS011;8313;49.894;8.084;2022-11-15T04:26:03;8.40;;;6.50;;
16407;SDS011;8313;49.894;8.084;2022-11-15T04:28:49;8.63;;;6.00;;
16407;SDS011;8313;49.894;8.084;2022-11-15T04:31:52;11.63;;;6.30;;
16407;SDS011;8313;49.894;8.084;2022-11-15T04:34:36;8.47;;;6.13;;
16407;SDS011;8313;49.894;8.084;2022-11-15T04:37:22;7.00;;;5.57;;
16407;SDS011;8313;49.894;8.084;2022-11-15T04:40:06;9.90;;;5.57;;
16407;SDS011;8313;49.894;8.084;2022-11-15T04:42:51;7.00;;;5.83;;
16407;SDS011;8313;49.894;8.084;2022-11-15T04:45:35;9.03;;;6.00;;
16407;SDS011;8313;49.894;8.084;2022-11-15T04:48:19;9.10;;;5.50;;
16407;SDS011;8313;49.894;8.084;2022-11-15T04:51:04;10.00;;;5.50;;
16407;SDS011;8313;49.894;8.084;2022-11-15T04:53:48;8.23;;;5.40;;
16407;SDS011;8313;49.894;8.084;2022-11-15T04:56:33;7.97;;;5.77;;
16407;SDS011;8313;49.894;8.084;2022-11-15T04:59:17;7.73;;;5.83;;
16407;SDS011;8313;49.894;8.084;2022-11-15T05:02:01;8.07;;;5.90;;
16407;SDS011;8313;49.894;8.084;2022-11-15T05:04:45;7.70;;;5.70;;
16407;SDS011;8313;49.894;8.084;2022-11-15T05:07:30;6.27;;;5.27;;
16407;SDS011;8313;49.894;8.084;2022-11-15T05:10:14;8.57;;;6.43;;
16407;SDS011;8313;49.894;8.084;2022-11-15T05:12:58;7.43;;;5.07;;
16407;SDS011;8313;49.894;8.084;2022-11-15T05:15:42;7.80;;;6.03;;
16407;SDS011;8313;49.894;8.084;2022-11-15T05:18:27;7.87;;;5.70;;
16407;SDS011;8313;49.894;8.084;2022-11-15T05:21:12;8.13;;;5.53;;
16407;SDS011;8313;49.894;8.084;2022-11-15T05:23:57;7.20;;;5.93;;
16407;SDS011;8313;49.894;8.084;2022-11-15T05:26:42;6.73;;;5.60;;
16407;SDS011;8313;49.894;8.084;2022-11-15T05:29:26;6.33;;;5.73;;
16407;SDS011;8313;49.894;8.084;2022-11-15T05:32:10;10.73;;;5.90;;
16407;SDS011;8313;49.894;8.084;2022-11-15T05:34:55;7.90;;;5.77;;
16407;SDS011;8313;49.894;8.084;2022-11-15T05:37:40;7.83;;;5.53;;
16407;SDS011;8313;49.894;8.084;2022-11-15T05:40:24;10.77;;;6.10;;
16407;SDS011;8313;49.894;8.084;2022-11-15T05:43:09;9.43;;;6.03;;
16407;SDS011;8313;49.894;8.084;2022-11-15T05:45:53;8.97;;;6.13;;
16407;SDS011;8313;49.894;8.084;2022-11-15T05:48:38;6.40;;;5.13;;
16407;SDS011;8313;49.894;8.084;2022-11-15T05:51:26;9.60;;;6.07;;
16407;SDS011;8313;49.894;8.084;2022-11-15T05:54:12;11.13;;;5.40;;
16407;SDS011;8313;49.894;8.084;2022-11-15T05:56:56;5.47;;;4.77;;
16407;SDS011;8313;49.894;8.084;2022-11-15T05:59:41;7.03;;;5.30;;
16407;SDS011;8313;49.894;8.084;2022-11-15T06:02:26;7.07;;;5.10;;
16407;SDS011;8313;49.894;8.084;2022-11-15T06:05:10;7.63;;;6.10;;
16407;SDS011;8313;49.894;8.084;2022-11-15T06:07:58;7.93;;;5.43;;
16407;SDS011;8313;49.894;8.084;2022-11-15T06:10:42;7.43;;;5.27;;
16407;SDS011;8313;49.894;8.084;2022-11-15T06:13:26;8.43;;;5.53;;
16407;SDS011;8313;49.894;8.084;2022-11-15T06:16:11;4.70;;;4.30;;
16407;SDS011;8313;49.894;8.084;2022-11-15T06:18:55;9.33;;;6.10;;
16407;SDS011;8313;49.894;8.084;2022-11-15T06:21:39;7.87;;;5.10;;
16407;SDS011;8313;49.894;8.084;2022-11-15T06:24:23;6.27;;;4.90;;
16407;SDS011;8313;49.894;8.084;2022-11-15T06:27:07;7.83;;;5.03;;
16407;SDS011;8313;49.894;8.084;2022-11-15T06:29:52;7.57;;;4.93;;
16407;SDS011;8313;49.894;8.084;2022-11-15T06:32:36;9.50;;;6.60;;
16407;SDS011;8313;49.894;8.084;2022-11-15T06:35:20;10.03;;;6.27;;
16407;SDS011;8313;49.894;8.084;2022-11-15T06:38:06;6.80;;;5.40;;
16407;SDS011;8313;49.894;8.084;2022-11-15T06:40:51;9.50;;;6.70;;
16407;SDS011;8313;49.894;8.084;2022-11-15T06:43:36;7.67;;;5.37;;
16407;SDS011;8313;49.894;8.084;2022-11-15T06:46:21;8.07;;;5.47;;
16407;SDS011;8313;49.894;8.084;2022-11-15T06:49:05;6.63;;;4.57;;
16407;SDS011;8313;49.894;8.084;2022-11-15T06:51:49;8.27;;;5.77;;
16407;SDS011;8313;49.894;8.084;2022-11-15T06:54:33;11.80;;;6.50;;
16407;SDS011;8313;49.894;8.084;2022-11-15T06:57:18;10.43;;;6.83;;
16407;SDS011;8313;49.894;8.084;2022-11-15T07:00:03;9.20;;;6.77;;
16407;SDS011;8313;49.894;8.084;2022-11-15T07:02:48;9.00;;;7.10;;
16407;SDS011;8313;49.894;8.084;2022-11-15T07:05:32;8.90;;;7.13;;
16407;SDS011;8313;49.894;8.084;2022-11-15T07:08:17;18.30;;;7.10;;
16407;SDS011;8313;49.894;8.084;2022-11-15T07:11:02;8.90;;;6.83;;
16407;SDS011;8313;49.894;8.084;2022-11-15T07:13:50;8.23;;;5.90;;
16407;SDS011;8313;49.894;8.084;2022-11-15T07:16:35;16.53;;;9.20;;
16407;SDS011;8313;49.894;8.084;2022-11-15T07:19:20;14.57;;;10.23;;
16407;SDS011;8313;49.894;8.084;2022-11-15T07:22:04;14.47;;;9.43;;
16407;SDS011;8313;49.894;8.084;2022-11-15T07:24:48;11.30;;;8.23;;
16407;SDS011;8313;49.894;8.084;2022-11-15T07:27:33;9.93;;;8.00;;
16407;SDS011;8313;49.894;8.084;2022-11-15T07:30:17;10.83;;;8.57;;
16407;SDS011;8313;49.894;8.084;2022-11-15T07:33:01;12.70;;;8.63;;
16407;SDS011;8313;49.894;8.084;2022-11-15T07:35:45;12.70;;;8.03;;
16407;SDS011;8313;49.894;8.084;2022-11-15T07:38:33;11.33;;;8.00;;
16407;SDS011;8313;49.894;8.084;2022-11-15T07:41:19;11.47;;;10.03;;
16407;SDS011;8313;49.894;8.084;2022-11-15T07:44:03;12.23;;;9.00;;
16407;SDS011;8313;49.894;8.084;2022-11-15T07:46:47;12.83;;;9.17;;
16407;SDS011;8313;49.894;8.084;2022-11-15T07:49:31;12.30;;;9.53;;
16407;SDS011;8313;49.894;8.084;2022-11-15T07:52:16;13.23;;;9.07;;
16407;SDS011;8313;49.894;8.084;2022-11-15T07:55:00;13.27;;;9.30;;
16407;SDS011;8313;49.894;8.084;2022-11-15T07:57:44;14.30;;;10.63;;
16407;SDS011;8313;49.894;8.084;2022-11-15T08:00:29;11.67;;;8.50;;
16407;SDS011;8313;49.894;8.084;2022-11-15T08:03:14;12.10;;;8.40;;
16407;SDS011;8313;49.894;8.084;2022-11-15T08:06:00;11.17;;;8.43;;
16407;SDS011;8313;49.894;8.084;2022-11-15T08:08:46;12.00;;;8.27;;
16407;SDS011;8313;49.894;8.084;2022-11-15T08:11:30;10.47;;;8.53;;
16407;SDS011;8313;49.894;8.084;2022-11-15T08:14:14;8.80;;;7.90;;
16407;SDS011;8313;49.894;8.084;2022-11-15T08:16:58;10.90;;;8.50;;
16407;SDS011;8313;49.894;8.084;2022-11-15T08:19:43;7.80;;;6.77;;
16407;SDS011;8313;49.894;8.084;2022-11-15T08:22:27;8.57;;;7.63;;
16407;SDS011;8313;49.894;8.084;2022-11-15T08:25:11;11.90;;;8.37;;
16407;SDS011;8313;49.894;8.084;2022-11-15T08:27:56;11.63;;;7.97;;
16407;SDS011;8313;49.894;8.084;2022-11-15T08:30:42;10.83;;;7.67;;
16407;SDS011;8313;49.894;8.084;2022-11-15T08:33:28;11.57;;;8.20;;
16407;SDS011;8313;49.894;8.084;2022-11-15T08:36:15;10.80;;;7.83;;
16407;SDS011;8313;49.894;8.084;2022-11-15T08:39:00;12.33;;;8.77;;
16407;SDS011;8313;49.894;8.084;2022-11-15T08:41:45;13.30;;;9.07;;
16407;SDS011;8313;49.894;8.084;2022-11-15T08:44:29;12.93;;;8.77;;
16407;SDS011;8313;49.894;8.084;2022-11-15T08:47:13;10.40;;;7.77;;
16407;SDS011;8313;49.894;8.084;2022-11-15T08:49:58;13.93;;;8.53;;
16407;SDS011;8313;49.894;8.084;2022-11-15T08:52:42;10.60;;;7.77;;
16407;SDS011;8313;49.894;8.084;2022-11-15T08:55:26;10.80;;;8.00;;
16407;SDS011;8313;49.894;8.084;2022-11-15T08:58:10;12.23;;;8.33;;
16407;SDS011;8313;49.894;8.084;2022-11-15T09:00:55;10.47;;;7.53;;
16407;SDS011;8313;49.894;8.084;2022-11-15T09:03:39;12.50;;;8.20;;
16407;SDS011;8313;49.894;8.084;2022-11-15T09:06:24;14.90;;;8.37;;
16407;SDS011;8313;49.894;8.084;2022-11-15T09:09:08;10.13;;;7.33;;
16407;SDS011;8313;49.894;8.084;2022-11-15T09:11:52;10.23;;;7.27;;
16407;SDS011;8313;49.894;8.084;2022-11-15T09:14:36;9.50;;;6.83;;
16407;SDS011;8313;49.894;8.084;2022-11-15T09:17:21;10.47;;;6.90;;
16407;SDS011;8313;49.894;8.084;2022-11-15T09:20:05;10.07;;;6.80;;
16407;SDS011;8313;49.894;8.084;2022-11-15T09:22:50;13.47;;;6.83;;
16407;SDS011;8313;49.894;8.084;2022-11-15T09:25:34;8.30;;;6.47;;
16407;SDS011;8313;49.894;8.084;2022-11-15T09:28:18;7.63;;;5.93;;
16407;SDS011;8313;49.894;8.084;2022-11-15T09:31:03;7.57;;;5.43;;
16407;SDS011;8313;49.894;8.084;2022-11-15T09:33:49;7.43;;;5.97;;
16407;SDS011;8313;49.894;8.084;2022-11-15T09:36:33;9.70;;;6.50;;
16407;SDS011;8313;49.894;8.084;2022-11-15T09:39:18;12.17;;;6.60;;
16407;SDS011;8313;49.894;8.084;2022-11-15T09:42:12;10.57;;;7.23;;
16407;SDS011;8313;49.894;8.084;2022-11-15T09:45:15;13.33;;;6.80;;
16407;SDS011;8313;49.894;8.084;2022-11-15T09:51:39;8.40;;;7.03;;
16407;SDS011;8313;49.894;8.084;2022-11-15T09:57:04;9.43;;;7.37;;
16407;SDS011;8313;49.894;8.084;2022-11-15T09:59:51;9.90;;;7.33;;
16407;SDS011;8313;49.894;8.084;2022-11-15T10:02:38;9.50;;;6.90;;
16407;SDS011;8313;49.894;8.084;2022-11-15T10:05:24;7.53;;;6.67;;
16407;SDS011;8313;49.894;8.084;2022-11-15T10:07:57;9.20;;;6.30;;
16407;SDS011;8313;49.894;8.084;2022-11-15T10:10:44;9.00;;;7.10;;
16407;SDS011;8313;49.894;8.084;2022-11-15T10:13:23;7.70;;;5.80;;
16407;SDS011;8313;49.894;8.084;2022-11-15T10:15:49;6.97;;;5.83;;
16407;SDS011;8313;49.894;8.084;2022-11-15T10:20:58;6.97;;;6.07;;
16407;SDS011;8313;49.894;8.084;2022-11-15T10:23:26;7.53;;;6.43;;
16407;SDS011;8313;49.894;8.084;2022-11-15T10:25:53;8.70;;;5.93;;
16407;SDS011;8313;49.894;8.084;2022-11-15T10:28:22;9.40;;;6.20;;
16407;SDS011;8313;49.894;8.084;2022-11-15T10:30:53;7.07;;;5.90;;
16407;SDS011;8313;49.894;8.084;2022-11-15T10:41:16;12.43;;;9.70;;
16407;SDS011;8313;49.894;8.084;2022-11-15T10:43:45;20.77;;;17.90;;
16407;SDS011;8313;49.894;8.084;2022-11-15T10:46:34;37.20;;;29.97;;
16407;SDS011;8313;49.894;8.084;2022-11-15T10:54:12;30.33;;;26.50;;
16407;SDS011;8313;49.894;8.084;2022-11-15T10:56:48;31.33;;;24.73;;
16407;SDS011;8313;49.894;8.084;2022-11-15T10:59:26;23.03;;;19.63;;
16407;SDS011;8313;49.894;8.084;2022-11-15T11:01:54;19.40;;;15.40;;
16407;SDS011;8313;49.894;8.084;2022-11-15T11:04:20;15.33;;;13.57;;
16407;SDS011;8313;49.894;8.084;2022-11-15T11:06:47;14.17;;;11.30;;
16407;SDS011;8313;49.894;8.084;2022-11-15T11:11:56;15.23;;;9.93;;
16407;SDS011;8313;49.894;8.084;2022-11-15T11:27:18;11.43;;;7.07;;
16407;SDS011;8313;49.894;8.084;2022-11-15T11:35:42;10.00;;;7.60;;
16407;SDS011;8313;49.894;8.084;2022-11-15T11:38:23;9.73;;;8.03;;
16407;SDS011;8313;49.894;8.084;2022-11-15T11:41:00;12.03;;;8.40;;
16407;SDS011;8313;49.894;8.084;2022-11-15T11:44:05;11.63;;;7.50;;
16407;SDS011;8313;49.894;8.084;2022-11-15T11:51:59;12.40;;;8.30;;
16407;SDS011;8313;49.894;8.084;2022-11-15T11:57:23;16.20;;;8.83;;
16407;SDS011;8313;49.894;8.084;2022-11-15T12:00:03;10.30;;;8.20;;
16407;SDS011;8313;49.894;8.084;2022-11-15T12:03:34;7.97;;;7.17;;
16407;SDS011;8313;49.894;8.084;2022-11-15T12:05:44;10.47;;;8.10;;
16407;SDS011;8313;49.894;8.084;2022-11-15T12:11:09;8.73;;;7.77;;
16407;SDS011;8313;49.894;8.084;2022-11-15T12:13:49;9.90;;;7.67;;
16407;SDS011;8313;49.894;8.084;2022-11-15T12:16:27;10.73;;;7.70;;
16407;SDS011;8313;49.894;8.084;2022-11-15T12:18:56;13.20;;;8.80;;
16407;SDS011;8313;49.894;8.084;2022-11-15T12:21:32;9.60;;;7.70;;
16407;SDS011;8313;49.894;8.084;2022-11-15T12:26:52;8.80;;;6.97;;
16407;SDS011;8313;49.894;8.084;2022-11-15T12:29:34;7.27;;;6.37;;
16407;SDS011;8313;49.894;8.084;2022-11-15T12:32:14;14.33;;;7.10;;
16407;SDS011;8313;49.894;8.084;2022-11-15T12:34:45;11.20;;;5.67;;
16407;SDS011;8313;49.894;8.084;2022-11-15T12:37:32;9.97;;;6.30;;
16407;SDS011;8313;49.894;8.084;2022-11-15T12:45:40;8.50;;;6.10;;
16407;SDS011;8313;49.894;8.084;2022-11-15T12:58:43;6.57;;;5.97;;
16407;SDS011;8313;49.894;8.084;2022-11-15T13:06:46;8.33;;;5.47;;
16407;SDS011;8313;49.894;8.084;2022-11-15T13:12:02;9.53;;;5.30;;
16407;SDS011;8313;49.894;8.084;2022-11-15T13:17:17;7.90;;;4.90;;
16407;SDS011;8313;49.894;8.084;2022-11-15T13:19:47;5.83;;;4.93;;
16407;SDS011;8313;49.894;8.084;2022-11-15T13:22:20;6.97;;;5.50;;
16407;SDS011;8313;49.894;8.084;2022-11-15T13:25:12;5.90;;;4.80;;
16407;SDS011;8313;49.894;8.084;2022-11-15T13:27:58;6.23;;;5.30;;
16407;SDS011;8313;49.894;8.084;2022-11-15T13:30:30;7.07;;;5.40;;
16407;SDS011;8313;49.894;8.084;2022-11-15T13:32:57;6.93;;;5.70;;
16407;SDS011;8313;49.894;8.084;2022-11-15T13:35:30;6.50;;;5.60;;
16407;SDS011;8313;49.894;8.084;2022-11-15T13:37:59;11.50;;;7.43;;
16407;SDS011;8313;49.894;8.084;2022-11-15T13:40:35;12.50;;;8.23;;
16407;SDS011;8313;49.894;8.084;2022-11-15T13:46:03;11.73;;;7.23;;
16407;SDS011;8313;49.894;8.084;2022-11-15T13:48:29;11.40;;;8.03;;
16407;SDS011;8313;49.894;8.084;2022-11-15T13:50:54;9.60;;;7.10;;
16407;SDS011;8313;49.894;8.084;2022-11-15T13:53:22;8.90;;;7.00;;
16407;SDS011;8313;49.894;8.084;2022-11-15T13:55:48;11.07;;;7.47;;
16407;SDS011;8313;49.894;8.084;2022-11-15T13:58:15;7.97;;;6.33;;
16407;SDS011;8313;49.894;8.084;2022-11-15T14:00:42;8.03;;;5.70;;
16407;SDS011;8313;49.894;8.084;2022-11-15T14:05:43;7.07;;;4.87;;
16407;SDS011;8313;49.894;8.084;2022-11-15T14:08:26;8.47;;;5.70;;
16407;SDS011;8313;49.894;8.084;2022-11-15T14:16:34;8.10;;;5.70;;
16407;SDS011;8313;49.894;8.084;2022-11-15T14:19:02;8.60;;;6.87;;
16407;SDS011;8313;49.894;8.084;2022-11-15T14:21:29;9.60;;;6.77;;
16407;SDS011;8313;49.894;8.084;2022-11-15T14:24:13;20.53;;;13.43;;
16407;SDS011;8313;49.894;8.084;2022-11-15T14:26:43;23.37;;;13.07;;
16407;SDS011;8313;49.894;8.084;2022-11-15T14:29:25;34.50;;;18.50;;
16407;SDS011;8313;49.894;8.084;2022-11-15T14:31:53;86.17;;;36.10;;
16407;SDS011;8313;49.894;8.084;2022-11-15T14:34:31;103.50;;;41.07;;
16407;SDS011;8313;49.894;8.084;2022-11-15T14:36:57;75.43;;;34.20;;
16407;SDS011;8313;49.894;8.084;2022-11-15T14:39:23;74.20;;;32.77;;
16407;SDS011;8313;49.894;8.084;2022-11-15T14:41:50;34.60;;;18.83;;
16407;SDS011;8313;49.894;8.084;2022-11-15T14:44:15;23.33;;;13.13;;
16407;SDS011;8313;49.894;8.084;2022-11-15T14:46:43;24.83;;;13.63;;
16407;SDS011;8313;49.894;8.084;2022-11-15T14:49:09;22.20;;;10.10;;
16407;SDS011;8313;49.894;8.084;2022-11-15T14:51:35;15.57;;;8.30;;
16407;SDS011;8313;49.894;8.084;2022-11-15T14:54:00;14.27;;;8.90;;
16407;SDS011;8313;49.894;8.084;2022-11-15T14:56:26;12.20;;;7.50;;
16407;SDS011;8313;49.894;8.084;2022-11-15T14:58:52;12.30;;;6.47;;
16407;SDS011;8313;49.894;8.084;2022-11-15T15:01:21;10.93;;;6.50;;
16407;SDS011;8313;49.894;8.084;2022-11-15T15:03:51;7.47;;;5.63;;
16407;SDS011;8313;49.894;8.084;2022-11-15T15:06:20;7.53;;;5.57;;
16407;SDS011;8313;49.894;8.084;2022-11-15T15:08:46;8.57;;;5.70;;
16407;SDS011;8313;49.894;8.084;2022-11-15T15:11:20;6.20;;;4.77;;
16407;SDS011;8313;49.894;8.084;2022-11-15T15:13:48;6.07;;;4.47;;
16407;SDS011;8313;49.894;8.084;2022-11-15T15:16:14;5.83;;;4.40;;
16407;SDS011;8313;49.894;8.084;2022-11-15T15:18:39;7.30;;;4.40;;
16407;SDS011;8313;49.894;8.084;2022-11-15T15:21:14;4.70;;;4.20;;
16407;SDS011;8313;49.894;8.084;2022-11-15T15:23:42;5.63;;;4.60;;
16407;SDS011;8313;49.894;8.084;2022-11-15T15:26:08;8.10;;;4.23;;
16407;SDS011;8313;49.894;8.084;2022-11-15T15:28:34;5.80;;;4.20;;
16407;SDS011;8313;49.894;8.084;2022-11-15T15:31:00;7.67;;;4.73;;
16407;SDS011;8313;49.894;8.084;2022-11-15T15:33:26;7.30;;;4.53;;
16407;SDS011;8313;49.894;8.084;2022-11-15T15:35:51;9.37;;;4.70;;
16407;SDS011;8313;49.894;8.084;2022-11-15T15:38:17;6.97;;;5.37;;
16407;SDS011;8313;49.894;8.084;2022-11-15T15:40:43;7.90;;;5.60;;
16407;SDS011;8313;49.894;8.084;2022-11-15T15:43:08;6.30;;;4.37;;
16407;SDS011;8313;49.894;8.084;2022-11-15T15:45:35;8.93;;;4.50;;
16407;SDS011;8313;49.894;8.084;2022-11-15T15:48:04;5.63;;;4.23;;
16407;SDS011;8313;49.894;8.084;2022-11-15T15:50:33;6.07;;;4.80;;
16407;SDS011;8313;49.894;8.084;2022-11-15T15:53:01;7.37;;;5.40;;
16407;SDS011;8313;49.894;8.084;2022-11-15T15:55:28;7.87;;;5.03;;
16407;SDS011;8313;49.894;8.084;2022-11-15T15:57:54;8.03;;;5.20;;
16407;SDS011;8313;49.894;8.084;2022-11-15T16:00:21;7.97;;;4.33;;
16407;SDS011;8313;49.894;8.084;2022-11-15T16:02:48;7.47;;;5.23;;
16407;SDS011;8313;49.894;8.084;2022-11-15T16:05:14;13.63;;;5.70;;
16407;SDS011;8313;49.894;8.084;2022-11-15T16:07:40;5.40;;;4.40;;
16407;SDS011;8313;49.894;8.084;2022-11-15T16:10:24;5.57;;;4.17;;
16407;SDS011;8313;49.894;8.084;2022-11-15T16:12:52;7.10;;;4.00;;
16407;SDS011;8313;49.894;8.084;2022-11-15T16:15:19;6.33;;;4.07;;
16407;SDS011;8313;49.894;8.084;2022-11-15T16:17:56;5.07;;;4.07;;
16407;SDS011;8313;49.894;8.084;2022-11-15T16:20:26;8.10;;;3.30;;
16407;SDS011;8313;49.894;8.084;2022-11-15T16:23:03;5.20;;;3.90;;
16407;SDS011;8313;49.894;8.084;2022-11-15T16:25:32;6.40;;;4.20;;
16407;SDS011;8313;49.894;8.084;2022-11-15T16:28:02;6.07;;;4.67;;
16407;SDS011;8313;49.894;8.084;2022-11-15T16:30:28;7.57;;;3.97;;
16407;SDS011;8313;49.894;8.084;2022-11-15T16:32:53;7.90;;;5.23;;
16407;SDS011;8313;49.894;8.084;2022-11-15T16:35:19;7.30;;;4.27;;
16407;SDS011;8313;49.894;8.084;2022-11-15T16:37:45;6.20;;;4.23;;
16407;SDS011;8313;49.894;8.084;2022-11-15T16:40:20;7.43;;;4.23;;
16407;SDS011;8313;49.894;8.084;2022-11-15T16:42:50;5.77;;;3.27;;
16407;SDS011;8313;49.894;8.084;2022-11-15T16:45:15;4.83;;;4.10;;
16407;SDS011;8313;49.894;8.084;2022-11-15T16:47:41;4.43;;;4.03;;
16407;SDS011;8313;49.894;8.084;2022-11-15T16:50:13;6.27;;;4.07;;
16407;SDS011;8313;49.894;8.084;2022-11-15T16:52:56;5.27;;;4.00;;
16407;SDS011;8313;49.894;8.084;2022-11-15T16:55:24;4.63;;;3.60;;
16407;SDS011;8313;49.894;8.084;2022-11-15T16:57:52;6.90;;;4.10;;
16407;SDS011;8313;49.894;8.084;2022-11-15T17:00:19;5.03;;;4.17;;
16407;SDS011;8313;49.894;8.084;2022-11-15T17:02:46;6.13;;;4.00;;
16407;SDS011;8313;49.894;8.084;2022-11-15T17:05:14;4.07;;;3.70;;
16407;SDS011;8313;49.894;8.084;2022-11-15T17:07:42;5.73;;;4.30;;
16407;SDS011;8313;49.894;8.084;2022-11-15T17:10:08;6.00;;;4.80;;
16407;SDS011;8313;49.894;8.084;2022-11-15T17:12:35;7.30;;;4.40;;
16407;SDS011;8313;49.894;8.084;2022-11-15T17:15:02;5.40;;;4.60;;
16407;SDS011;8313;49.894;8.084;2022-11-15T17:17:29;8.27;;;4.90;;
16407;SDS011;8313;49.894;8.084;2022-11-15T17:19:56;8.23;;;5.50;;
16407;SDS011;8313;49.894;8.084;2022-11-15T17:22:22;5.90;;;5.30;;
16407;SDS011;8313;49.894;8.084;2022-11-15T17:24:48;10.10;;;6.00;;
16407;SDS011;8313;49.894;8.084;2022-11-15T17:27:13;7.00;;;6.30;;
16407;SDS011;8313;49.894;8.084;2022-11-15T17:29:42;6.53;;;5.20;;
16407;SDS011;8313;49.894;8.084;2022-11-15T17:32:08;11.17;;;6.03;;
16407;SDS011;8313;49.894;8.084;2022-11-15T17:34:34;7.63;;;6.77;;
16407;SDS011;8313;49.894;8.084;2022-11-15T17:37:00;14.33;;;5.63;;
16407;SDS011;8313;49.894;8.084;2022-11-15T17:39:25;8.80;;;6.30;;
16407;SDS011;8313;49.894;8.084;2022-11-15T17:41:51;7.03;;;6.33;;
16407;SDS011;8313;49.894;8.084;2022-11-15T17:44:17;9.07;;;6.00;;
16407;SDS011;8313;49.894;8.084;2022-11-15T17:46:42;5.33;;;4.70;;
16407;SDS011;8313;49.894;8.084;2022-11-15T17:49:08;5.73;;;5.17;;
16407;SDS011;8313;49.894;8.084;2022-11-15T17:51:34;10.23;;;6.87;;
16407;SDS011;8313;49.894;8.084;2022-11-15T17:54:00;10.97;;;8.07;;
16407;SDS011;8313;49.894;8.084;2022-11-15T17:56:26;8.27;;;7.13;;
16407;SDS011;8313;49.894;8.084;2022-11-15T17:58:55;9.03;;;6.23;;
16407;SDS011;8313;49.894;8.084;2022-11-15T18:01:24;5.63;;;5.13;;
16407;SDS011;8313;49.894;8.084;2022-11-15T18:03:51;7.40;;;5.70;;
16407;SDS011;8313;49.894;8.084;2022-11-15T18:06:18;6.67;;;5.57;;
16407;SDS011;8313;49.894;8.084;2022-11-15T18:08:45;8.37;;;6.40;;